Time;durP1;ratioP1;P1;durP2;ratioP2;P2;SDS_P1;SDS_P2;PMS_P1;PMS_P2;Temp;Humidity;BMP_temperature;BMP_pressure;BME280_temperature;BME280_humidity;BME280_pressure;Samples;Min_cycle;Max_cycle;Signal;HPM_P1;HPM_P2
2022/12/30 00:01:25;;;;;;;9.27;3.60;;;9.70;81.70;;;12.54;57.48;100616.50;5036056;28;20195;-54
2022/12/30 00:03:52;;;;;;;8.93;2.93;;;9.70;81.90;;;12.61;57.76;100617.38;5036545;28;20191;-53
2022/12/30 00:06:22;;;;;;;14.60;3.10;;;9.80;82.10;;;12.67;57.78;100611.34;5036395;28;20245;-52
2022/12/30 00:08:55;;;;;;;12.03;3.60;;;9.90;82.40;;;12.72;57.39;100624.78;5020399;28;20215;-52
2022/12/30 00:11:26;;;;;;;9.00;3.20;;;9.90;82.40;;;12.77;57.55;100632.94;5017006;28;20178;-54
2022/12/30 00:33:50;;;;;;;8.43;3.33;;;10.00;80.40;;;12.72;57.39;100640.63;5018243;28;20176;-54
2022/12/30 00:36:18;;;;;;;11.13;3.93;;;10.00;80.20;;;12.76;57.36;100648.00;5016586;28;20191;-55
2022/12/30 00:38:45;;;;;;;12.47;4.17;;;10.00;80.20;;;12.81;57.19;100642.16;5016174;28;20219;-53
2022/12/30 00:43:59;;;;;;;10.47;3.60;;;10.10;80.30;;;12.85;56.95;100646.03;5035870;28;20189;-55
2022/12/30 00:46:26;;;;;;;10.70;3.37;;;10.00;79.90;;;12.88;56.72;100650.94;5035745;28;20191;-55
2022/12/30 00:57:11;;;;;;;8.37;3.43;;;10.10;79.30;;;12.87;56.79;100673.06;5019862;28;20187;-55
2022/12/30 00:59:38;;;;;;;10.33;3.83;;;10.20;79.40;;;12.91;56.74;100676.94;5021686;28;20741;-53
2022/12/30 01:02:05;;;;;;;13.03;4.27;;;10.20;79.50;;;12.95;56.57;100675.56;5035184;28;20190;-55
2022/12/30 01:04:33;;;;;;;10.03;3.60;;;10.20;79.40;;;12.96;56.39;100668.44;5035820;28;20666;-53
2022/12/30 01:07:00;;;;;;;10.70;4.10;;;10.20;79.20;;;12.91;55.95;100680.41;5034965;28;20575;-54
2022/12/30 01:09:26;;;;;;;15.37;4.47;;;10.20;79.00;;;12.89;56.28;100679.78;5035245;28;20218;-53
2022/12/30 01:12:09;;;;;;;12.40;4.10;;;10.20;78.80;;;12.89;56.03;100679.78;5032897;28;20198;-54
2022/12/30 01:14:40;;;;;;;7.87;2.67;;;10.20;78.80;;;12.83;56.14;100674.47;5015725;28;20180;-51
2022/12/30 01:17:10;;;;;;;14.03;3.53;;;10.20;78.80;;;12.86;56.29;100674.06;5015710;28;20184;-51
2022/12/30 01:19:38;;;;;;;9.73;4.17;;;10.10;78.80;;;12.90;56.17;100680.63;5015116;28;20279;-54
2022/12/30 01:22:06;;;;;;;11.70;3.77;;;10.20;79.00;;;12.93;56.11;100679.41;5015358;28;20187;-54
2022/12/30 01:24:34;;;;;;;9.97;3.73;;;10.20;79.10;;;12.96;56.01;100690.41;5015456;28;20195;-53
2022/12/30 01:27:02;;;;;;;9.07;3.63;;;10.20;79.10;;;12.97;55.92;100692.06;5014884;28;20288;-55
2022/12/30 01:29:34;;;;;;;10.17;3.47;;;10.20;79.10;;;13.02;55.94;100694.13;5028384;28;20222;-54
2022/12/30 01:32:04;;;;;;;12.90;3.80;;;10.20;78.90;;;13.05;55.85;100691.09;5035302;28;20186;-56
2022/12/30 01:34:31;;;;;;;9.73;3.10;;;10.20;78.90;;;13.07;55.88;100708.44;5035489;28;20578;-56
2022/12/30 01:36:58;;;;;;;10.20;3.40;;;10.20;78.80;;;13.09;55.68;100706.41;5034961;28;20669;-53
2022/12/30 01:39:25;;;;;;;10.53;3.23;;;10.20;78.60;;;12.99;55.67;100705.06;5034625;28;20215;-55
2022/12/30 01:41:54;;;;;;;11.03;3.60;;;10.20;78.20;;;12.99;55.42;100695.31;5034839;28;20198;-53
2022/12/30 01:44:56;;;;;;;7.87;2.83;;;10.30;77.90;;;12.99;55.56;100716.44;5033398;28;20192;-54
2022/12/30 01:47:35;;;;;;;12.47;4.27;;;10.30;78.00;;;13.07;55.49;100719.00;5034808;28;20647;-52
2022/12/30 01:50:21;;;;;;;13.53;3.73;;;10.30;77.80;;;13.10;55.33;100718.59;5034786;28;20756;-55
2022/12/30 01:52:54;;;;;;;11.60;4.00;;;10.30;77.60;;;13.13;55.15;100715.56;5035288;28;20193;-55
2022/12/30 01:55:28;;;;;;;7.57;3.90;;;10.30;77.60;;;13.14;54.86;100726.97;5035077;28;20631;-53
2022/12/30 01:57:58;;;;;;;10.03;4.07;;;10.40;77.40;;;13.18;54.98;100725.56;5034377;28;20258;-54
2022/12/30 02:00:25;;;;;;;10.73;3.73;;;10.40;77.40;;;13.21;54.91;100731.31;5034227;28;20233;-54
2022/12/30 02:02:55;;;;;;;10.23;3.90;;;10.40;77.10;;;13.20;54.67;100736.75;5015226;28;20278;-52
2022/12/30 02:05:29;;;;;;;10.27;3.90;;;10.40;76.80;;;13.14;54.43;100729.63;5015252;28;20183;-53
2022/12/30 02:08:06;;;;;;;9.27;3.63;;;10.40;76.70;;;13.12;54.20;100739.56;5022912;28;20593;-56
2022/12/30 02:10:37;;;;;;;11.67;3.63;;;10.40;76.60;;;13.12;54.46;100740.34;5034522;28;20217;-55
2022/12/30 02:13:04;;;;;;;11.47;4.07;;;10.40;76.40;;;13.07;54.30;100748.06;5034222;28;20198;-56
2022/12/30 02:15:42;;;;;;;12.40;3.23;;;10.40;76.10;;;13.07;54.21;100750.72;5034408;28;20342;-55
2022/12/30 02:18:18;;;;;;;12.43;3.40;;;10.40;76.10;;;13.06;54.36;100748.22;5019378;28;20524;-55
2022/12/30 02:21:38;;;;;;;10.47;3.60;;;10.40;76.10;;;12.97;54.30;100752.81;5015034;28;20194;-55
2022/12/30 02:24:45;;;;;;;13.10;3.60;;;10.30;76.10;;;12.95;54.28;100761.94;5014774;28;20639;-52
2022/12/30 02:27:55;;;;;;;9.17;3.43;;;10.30;75.90;;;12.93;54.43;100760.28;5014329;28;20695;-52
2022/12/30 02:30:32;;;;;;;10.23;3.83;;;10.30;76.10;;;12.99;54.45;100764.00;5014248;28;20225;-55
2022/12/30 02:33:17;;;;;;;9.30;3.63;;;10.30;76.20;;;12.97;54.12;100766.03;5015456;28;20195;-52
2022/12/30 02:35:59;;;;;;;7.60;3.90;;;10.30;76.20;;;13.00;54.25;100765.66;5030986;28;20241;-51
2022/12/30 02:38:40;;;;;;;11.80;3.50;;;10.30;76.10;;;12.99;54.11;100769.28;5023239;28;20563;-55
2022/12/30 02:47:03;;;;;;;11.87;4.37;;;10.30;75.80;;;12.87;54.30;100781.38;5033537;28;20558;-56
2022/12/30 02:49:36;;;;;;;15.83;4.67;;;10.20;75.80;;;12.87;54.14;100774.25;5033741;28;20678;-55
2022/12/30 02:52:15;;;;;;;12.87;4.00;;;10.20;75.70;;;12.86;54.00;100774.44;5034289;28;20189;-52
2022/12/30 02:54:47;;;;;;;11.13;3.83;;;10.20;75.70;;;12.86;54.19;100774.44;5034092;28;20205;-52
2022/12/30 02:57:25;;;;;;;9.77;3.47;;;10.20;75.80;;;12.85;54.13;100772.81;5033885;28;20198;-52
2022/12/30 03:06:45;;;;;;;11.17;4.17;;;10.20;75.70;;;12.68;54.58;100777.53;5034255;28;20190;-53
2022/12/30 03:09:28;;;;;;;11.90;3.60;;;10.20;75.70;;;12.73;54.38;100769.03;5032089;28;20229;-54
2022/12/30 03:12:04;;;;;;;11.57;4.77;;;10.20;75.70;;;12.74;53.86;100771.47;5033442;28;20190;-54
2022/12/30 03:14:41;;;;;;;8.20;4.13;;;10.10;75.60;;;12.71;54.19;100765.75;5033424;28;20639;-54
2022/12/30 03:17:15;;;;;;;13.23;3.97;;;10.10;75.60;;;12.64;54.51;100778.09;5033753;28;20190;-54
2022/12/30 03:19:47;;;;;;;12.77;3.83;;;10.20;75.70;;;12.71;54.45;100778.97;5033456;28;20648;-56
2022/12/30 03:27:57;;;;;;;11.93;3.93;;;10.10;75.70;;;12.70;54.47;100785.25;5033422;28;20583;-53
2022/12/30 03:30:24;;;;;;;11.07;3.53;;;10.10;75.80;;;12.73;54.34;100787.53;5032032;28;20210;-55
2022/12/30 03:32:51;;;;;;;11.53;3.47;;;10.10;76.00;;;12.75;54.48;100796.06;5033480;28;20206;-54
2022/12/30 03:35:22;;;;;;;11.27;4.13;;;10.10;76.10;;;12.78;54.27;100795.69;5033542;28;20205;-53
2022/12/30 03:37:55;;;;;;;9.63;3.60;;;10.10;76.30;;;12.78;54.56;100788.59;5033005;28;20203;-55
2022/12/30 03:40:31;;;;;;;9.13;3.30;;;10.10;76.30;;;12.78;54.37;100796.53;5033589;28;20225;-55
2022/12/30 03:42:59;;;;;;;12.77;3.47;;;10.10;76.30;;;12.78;54.37;100795.69;5033380;28;20553;-56
2022/12/30 03:45:26;;;;;;;12.37;3.83;;;10.10;76.30;;;12.74;54.37;100803.16;5033467;28;20199;-55
2022/12/30 03:47:53;;;;;;;12.37;3.37;;;10.10;76.40;;;12.76;54.47;100821.47;5033690;28;20218;-55
2022/12/30 03:50:20;;;;;;;11.23;3.50;;;10.00;76.40;;;12.75;54.51;100820.66;5033408;28;20214;-54
2022/12/30 03:52:47;;;;;;;8.53;3.83;;;10.00;76.50;;;12.76;54.32;100824.13;5033345;28;20191;-54
2022/12/30 03:55:16;;;;;;;13.27;3.93;;;10.00;76.60;;;12.79;54.42;100823.72;5020801;28;20640;-52
2022/12/30 03:57:43;;;;;;;9.20;3.23;;;10.00;76.70;;;12.81;54.46;100819.09;5013043;28;20595;-55
2022/12/30 04:00:11;;;;;;;10.40;4.10;;;10.10;76.70;;;12.82;54.66;100831.28;5023098;28;20232;-57
2022/12/30 04:02:39;;;;;;;12.10;3.77;;;10.10;76.70;;;12.80;54.60;100833.31;5032832;28;20204;-53
2022/12/30 04:05:08;;;;;;;8.27;3.47;;;10.00;76.40;;;12.75;54.84;100835.69;5037908;28;20191;-52
2022/12/30 04:07:35;;;;;;;8.50;3.47;;;10.00;76.50;;;12.72;54.26;100843.97;5032242;28;20310;-55
2022/12/30 04:10:04;;;;;;;12.43;4.00;;;10.00;76.50;;;12.66;54.68;100837.63;5032416;28;20301;-53
2022/12/30 04:12:32;;;;;;;9.23;3.93;;;10.00;76.50;;;12.57;54.96;100840.56;5032916;28;20567;-52
2022/12/30 04:14:59;;;;;;;9.43;4.17;;;9.90;77.50;;;12.47;54.87;100837.38;5032764;28;20237;-55
2022/12/30 04:17:26;;;;;;;8.43;3.90;;;9.90;77.60;;;12.38;55.24;100838.50;5033005;28;20198;-52
2022/12/30 04:19:53;;;;;;;11.00;3.50;;;9.90;77.70;;;12.33;55.39;100846.13;5033423;28;20218;-54
2022/12/30 04:22:20;;;;;;;9.57;3.07;;;9.80;77.70;;;12.31;55.60;100856.06;5034321;28;20195;-55
2022/12/30 04:24:46;;;;;;;14.07;3.90;;;9.80;78.00;;;12.18;55.91;100840.84;5022708;28;20528;-56
2022/12/30 04:27:16;;;;;;;10.40;4.30;;;9.70;78.20;;;12.15;55.89;100847.31;5016643;28;20198;-52
2022/12/30 04:29:44;;;;;;;13.53;4.57;;;9.70;78.20;;;12.13;55.96;100851.97;5016149;28;20223;-52
2022/12/30 04:32:11;;;;;;;22.20;4.50;;;9.60;78.20;;;12.09;56.28;100855.97;5036118;28;20195;-54
2022/12/30 04:34:38;;;;;;;11.30;3.63;;;9.60;78.40;;;12.01;56.05;100863.97;5036095;28;20249;-52
2022/12/30 04:37:05;;;;;;;15.53;4.40;;;9.60;78.50;;;11.87;56.67;100856.03;5035999;28;20205;-53
2022/12/30 04:39:32;;;;;;;8.97;4.03;;;9.50;78.70;;;11.83;56.60;100868.78;5035870;28;20218;-54
2022/12/30 04:41:59;;;;;;;12.40;4.27;;;9.50;78.70;;;11.79;57.02;100861.41;5036128;28;20194;-55
2022/12/30 04:44:26;;;;;;;11.67;5.07;;;9.40;79.00;;;11.70;57.46;100860.63;5036147;28;20190;-52
2022/12/30 04:46:54;;;;;;;10.23;3.80;;;9.30;79.30;;;11.57;57.49;100855.13;5036492;28;20249;-54
2022/12/30 04:49:21;;;;;;;11.50;4.47;;;9.30;79.60;;;11.51;57.69;100861.09;5035789;28;20642;-55
2022/12/30 04:51:48;;;;;;;13.50;4.50;;;9.20;79.70;;;11.46;58.02;100863.44;5036948;28;20206;-54
2022/12/30 04:54:15;;;;;;;8.43;3.47;;;9.20;79.90;;;11.45;58.09;100878.47;5036270;28;20543;-52
2022/12/30 04:56:42;;;;;;;9.63;4.00;;;9.10;79.90;;;11.44;57.68;100875.97;5035505;28;20201;-55
2022/12/30 04:59:09;;;;;;;10.67;4.13;;;9.10;80.80;;;11.37;57.80;100880.31;5035569;28;20207;-54
2022/12/30 05:01:35;;;;;;;11.80;4.53;;;9.00;80.30;;;11.31;58.52;100881.03;5035679;28;20198;-54
2022/12/30 05:04:04;;;;;;;12.43;4.03;;;9.00;80.50;;;11.26;58.28;100878.09;5020949;28;20566;-55
2022/12/30 05:06:31;;;;;;;12.93;4.80;;;8.90;80.60;;;11.18;58.33;100873.69;5016248;28;20196;-52
2022/12/30 05:08:58;;;;;;;14.97;4.53;;;8.90;80.80;;;11.18;58.57;100889.50;5016193;28;20699;-53
2022/12/30 05:11:25;;;;;;;10.20;4.40;;;8.90;81.00;;;11.09;59.28;100876.56;5015802;28;20222;-53
2022/12/30 05:13:52;;;;;;;10.77;4.50;;;8.80;81.10;;;11.07;59.34;100878.56;5015799;28;20254;-52
2022/12/30 05:16:18;;;;;;;16.60;4.13;;;8.80;81.20;;;11.01;59.50;100873.97;5019438;28;20197;-53
2022/12/30 05:18:45;;;;;;;10.70;4.13;;;8.70;81.30;;;11.01;59.43;100889.78;5035864;28;20217;-52
2022/12/30 05:21:14;;;;;;;7.60;3.40;;;8.70;81.30;;;11.05;58.68;100901.63;5035854;28;20191;-52
2022/12/30 05:26:26;;;;;;;7.23;3.83;;;8.60;81.70;;;10.92;59.49;100919.78;5018897;28;20658;-54
2022/12/30 05:28:53;;;;;;;10.57;3.80;;;8.60;81.70;;;10.84;59.33;100910.94;5034701;28;20218;-54
2022/12/30 05:31:20;;;;;;;8.87;3.60;;;8.60;82.00;;;10.82;59.60;100905.00;5034750;28;20256;-54
2022/12/30 05:33:47;;;;;;;8.90;3.63;;;8.50;81.90;;;10.76;59.78;100910.16;5034580;28;20190;-53
2022/12/30 05:36:16;;;;;;;11.37;4.30;;;8.50;82.10;;;10.71;60.12;100910.66;5034930;28;20191;-56
2022/12/30 05:38:43;;;;;;;9.93;3.90;;;8.40;82.30;;;10.69;59.68;100903.94;5034693;28;20218;-52
2022/12/30 05:41:10;;;;;;;12.37;3.87;;;8.40;82.30;;;10.62;60.34;100911.69;5034962;28;20253;-52
2022/12/30 05:43:47;;;;;;;11.27;4.47;;;8.30;82.50;;;10.63;60.18;100908.06;5018072;28;20365;-56
2022/12/30 05:46:13;;;;;;;9.97;3.23;;;8.30;82.70;;;10.63;60.49;100913.31;5015157;28;20192;-54
2022/12/30 05:48:40;;;;;;;10.07;4.30;;;8.30;82.80;;;10.57;60.54;100905.28;5024441;28;20227;-55
2022/12/30 05:51:07;;;;;;;12.23;3.90;;;8.30;83.00;;;10.58;60.42;100907.75;5035157;28;20256;-55
2022/12/30 05:53:36;;;;;;;11.73;4.17;;;8.20;83.10;;;10.51;60.67;100912.06;5034540;28;20217;-56
2022/12/30 05:56:03;;;;;;;19.67;4.60;;;8.20;83.20;;;10.52;60.41;100905.81;5029534;28;20195;-54
2022/12/30 05:58:30;;;;;;;7.67;3.40;;;8.20;83.30;;;10.58;60.86;100905.13;5014990;28;20279;-53
2022/12/30 06:00:58;;;;;;;11.67;4.33;;;8.20;83.30;;;10.55;60.21;100894.13;5031535;28;20202;-54
2022/12/30 06:03:27;;;;;;;8.83;3.83;;;8.20;83.50;;;10.57;60.46;100908.75;5033385;28;20547;-52
2022/12/30 06:05:56;;;;;;;9.67;4.40;;;8.20;83.40;;;10.55;60.94;100904.66;5018747;28;20192;-55
2022/12/30 06:08:23;;;;;;;8.83;4.30;;;8.20;83.70;;;10.55;60.68;100894.94;5014160;28;20217;-52
2022/12/30 06:10:51;;;;;;;12.83;4.77;;;8.20;83.60;;;10.50;60.65;100889.38;5014483;28;20190;-52
2022/12/30 06:13:19;;;;;;;12.17;4.73;;;8.20;83.70;;;10.52;61.00;100890.03;5014089;28;20199;-53
2022/12/30 06:15:46;;;;;;;10.33;4.30;;;8.10;83.80;;;10.52;60.62;100891.81;5013522;28;20199;-52
2022/12/30 06:18:13;;;;;;;12.03;4.63;;;8.10;83.90;;;10.47;60.61;100897.59;5015306;28;20195;-52
2022/12/30 06:20:40;;;;;;;11.27;4.17;;;8.10;84.00;;;10.40;60.89;100909.78;5014707;28;20219;-53
2022/12/30 06:23:07;;;;;;;15.33;4.67;;;8.00;84.10;;;10.38;61.71;100897.78;5020796;28;20198;-55
2022/12/30 06:25:34;;;;;;;11.97;4.43;;;8.00;84.20;;;10.35;61.29;100898.94;5033964;28;20551;-53
2022/12/30 06:28:03;;;;;;;11.30;4.33;;;8.10;84.50;;;10.35;61.77;100898.13;5033614;28;20589;-53
2022/12/30 06:30:30;;;;;;;11.50;4.67;;;8.00;84.30;;;10.37;61.26;100907.50;5034071;28;20214;-54
2022/12/30 06:32:59;;;;;;;8.53;4.33;;;8.00;84.40;;;10.38;61.20;100913.59;5033068;28;20206;-54
2022/12/30 06:35:26;;;;;;;13.00;4.80;;;8.00;84.40;;;10.39;61.34;100909.97;5033787;28;20671;-53
2022/12/30 06:37:53;;;;;;;9.93;4.67;;;8.00;84.50;;;10.41;61.58;100916.69;5033803;28;20199;-51
2022/12/30 06:40:20;;;;;;;10.47;4.60;;;8.00;84.60;;;10.39;61.35;100916.03;5033235;28;20210;-53
2022/12/30 06:42:47;;;;;;;15.90;5.23;;;8.00;84.70;;;10.36;61.54;100920.81;5033674;28;20213;-60
2022/12/30 06:45:15;;;;;;;15.57;4.90;;;8.00;84.70;;;10.31;61.84;100918.69;5034456;28;20198;-52
2022/12/30 06:47:42;;;;;;;11.20;4.13;;;8.00;84.90;;;10.35;61.36;100925.25;5033461;28;20198;-52
2022/12/30 06:50:10;;;;;;;13.40;4.23;;;8.00;84.80;;;10.35;61.85;100919.16;5033780;28;20272;-54
2022/12/30 06:52:37;;;;;;;10.53;3.60;;;8.00;84.90;;;10.26;61.81;100931.53;5033566;28;20210;-53
2022/12/30 06:55:05;;;;;;;14.47;4.63;;;8.00;85.00;;;10.27;61.84;100932.34;5033591;28;20260;-55
2022/12/30 06:57:33;;;;;;;10.20;3.73;;;8.00;85.00;;;10.25;62.28;100924.63;5033572;28;20201;-53
2022/12/30 07:00:00;;;;;;;15.50;4.60;;;8.00;85.10;;;10.24;62.48;100917.72;5032483;28;20272;-51
2022/12/30 07:02:28;;;;;;;12.33;3.93;;;7.90;84.90;;;10.28;62.13;100919.03;5023196;28;20198;-52
2022/12/30 07:04:55;;;;;;;13.17;4.50;;;8.00;85.00;;;10.27;61.69;100927.91;5013497;28;20196;-54
2022/12/30 07:07:22;;;;;;;11.60;4.10;;;8.00;84.90;;;10.30;62.14;100935.47;5013650;28;20573;-54
2022/12/30 07:09:50;;;;;;;9.30;4.23;;;8.00;84.90;;;10.33;61.63;100937.75;5013436;28;20238;-55
2022/12/30 07:12:17;;;;;;;10.73;3.53;;;8.00;84.90;;;10.34;62.03;100928.06;5013953;28;20206;-53
2022/12/30 07:14:44;;;;;;;11.27;3.93;;;7.90;84.80;;;10.32;61.60;100919.53;5030571;28;20554;-52
2022/12/30 07:17:11;;;;;;;14.70;4.07;;;7.90;84.80;;;10.35;61.94;100924.44;5033989;28;20194;-54
2022/12/30 07:19:40;;;;;;;8.30;3.73;;;8.00;85.00;;;10.33;61.93;100924.63;5024687;28;20218;-53
2022/12/30 07:22:07;;;;;;;11.37;4.20;;;7.90;84.90;;;10.34;61.42;100939.38;5017417;28;20206;-56
2022/12/30 07:24:35;;;;;;;13.47;3.63;;;7.90;84.90;;;10.39;61.13;100942.34;5015717;28;20659;-56
2022/12/30 07:27:01;;;;;;;11.03;3.53;;;8.00;85.10;;;10.44;61.66;100934.78;5013938;28;20199;-52
2022/12/30 07:29:28;;;;;;;12.33;3.10;;;8.00;85.00;;;10.46;61.05;100932.78;5012764;28;20229;-55
2022/12/30 07:31:55;;;;;;;10.90;3.93;;;8.00;85.00;;;10.50;60.92;100920.13;5013586;28;20183;-53
2022/12/30 07:34:23;;;;;;;7.60;2.80;;;8.00;84.80;;;10.44;61.36;100918.97;5013558;28;20195;-53
2022/12/30 07:36:51;;;;;;;8.10;3.63;;;8.00;84.60;;;10.41;61.54;100924.56;5013316;28;20206;-52
2022/12/30 07:39:18;;;;;;;11.93;3.77;;;8.00;84.60;;;10.42;61.24;100915.69;5018248;28;20207;-54
2022/12/30 07:41:45;;;;;;;10.97;3.07;;;8.00;84.40;;;10.45;61.46;100920.63;5026835;28;20218;-54
2022/12/30 07:44:12;;;;;;;14.40;3.70;;;8.10;84.40;;;10.47;60.68;100916.03;5033188;28;20290;-52
2022/12/30 07:46:40;;;;;;;10.40;3.67;;;8.10;84.30;;;10.49;60.69;100911.41;5033947;28;20206;-53
2022/12/30 07:49:07;;;;;;;11.60;4.20;;;8.00;84.20;;;10.45;60.75;100922.44;5033194;28;20245;-53
2022/12/30 07:51:34;;;;;;;9.53;3.27;;;8.00;84.10;;;10.43;60.93;100927.88;5033310;28;20202;-54
2022/12/30 07:54:02;;;;;;;9.80;3.63;;;8.00;84.10;;;10.47;60.91;100918.66;5032530;28;20184;-55
2022/12/30 07:56:33;;;;;;;9.10;3.80;;;8.00;84.10;;;10.36;60.81;100915.56;5036621;28;20190;-53
2022/12/30 07:59:02;;;;;;;9.57;3.60;;;8.00;84.10;;;10.31;60.90;100929.22;5036598;28;20230;-53
2022/12/30 08:01:30;;;;;;;12.00;3.90;;;8.00;84.10;;;10.31;60.79;100926.59;5036869;28;20191;-55
2022/12/30 08:03:57;;;;;;;12.43;3.77;;;8.00;84.20;;;10.20;60.99;100927.75;5038310;28;20254;-55
2022/12/30 08:06:39;;;;;;;13.83;3.90;;;7.90;84.10;;;10.20;60.94;100917.22;5038808;28;20214;-55
2022/12/30 08:09:07;;;;;;;10.00;3.77;;;7.90;84.20;;;10.17;61.54;100928.06;5025067;28;20282;-52
2022/12/30 08:11:34;;;;;;;7.53;3.60;;;7.90;84.20;;;10.17;61.70;100932.53;5025486;28;20207;-56
2022/12/30 08:14:01;;;;;;;13.67;3.33;;;7.90;84.20;;;10.21;61.08;100933.84;5018291;28;20238;-55
2022/12/30 08:16:28;;;;;;;10.13;3.53;;;7.90;84.20;;;10.26;61.08;100931.53;5031613;28;20202;-55
2022/12/30 08:18:55;;;;;;;9.03;3.90;;;7.90;84.20;;;10.29;61.05;100930.38;5037323;28;20767;-54
2022/12/30 08:21:23;;;;;;;9.23;3.67;;;7.90;84.00;;;10.34;60.93;100934.13;5035307;28;20612;-55
2022/12/30 08:23:50;;;;;;;12.70;3.87;;;8.00;84.10;;;10.40;61.10;100938.72;5018091;28;20637;-53
2022/12/30 08:26:21;;;;;;;9.83;3.37;;;8.00;83.90;;;10.48;60.33;100945.78;5018044;28;20548;-53
2022/12/30 08:28:48;;;;;;;9.43;3.83;;;8.00;83.80;;;10.48;60.21;100940.53;5018616;28;20746;-54
2022/12/30 08:31:19;;;;;;;8.80;3.73;;;8.00;83.70;;;10.50;60.67;100939.38;5018232;28;20240;-53
2022/12/30 08:33:46;;;;;;;12.33;3.37;;;8.10;83.70;;;10.52;60.25;100937.38;5017867;28;20180;-55
2022/12/30 08:36:17;;;;;;;12.53;4.37;;;8.10;83.50;;;10.57;60.46;100927.19;5028087;28;20194;-55
2022/12/30 08:38:47;;;;;;;11.47;3.23;;;8.10;83.40;;;10.58;60.55;100923.53;5036090;28;20222;-52
2022/12/30 08:41:20;;;;;;;13.60;4.23;;;8.10;83.30;;;10.63;59.82;100923.03;5036553;28;20240;-55
2022/12/30 08:43:48;;;;;;;12.60;3.60;;;8.20;83.20;;;10.71;59.71;100918.56;5036434;28;20182;-53
2022/12/30 08:46:17;;;;;;;14.17;2.87;;;8.20;83.10;;;10.69;59.69;100917.94;5036144;28;20656;-53
2022/12/30 08:48:45;;;;;;;11.00;3.17;;;8.20;82.90;;;10.74;60.00;100915.56;5035936;28;20586;-53
2022/12/30 08:51:13;;;;;;;13.00;3.17;;;8.30;83.00;;;10.69;59.86;100917.09;5035905;28;20198;-53
2022/12/30 08:53:40;;;;;;;11.53;3.50;;;8.30;82.80;;;10.70;60.10;100903.75;5035946;28;20187;-55
2022/12/30 08:56:12;;;;;;;13.97;3.63;;;8.30;82.70;;;10.75;59.57;100901.44;5036511;28;20725;-54
2022/12/30 08:58:42;;;;;;;8.10;2.83;;;8.40;82.70;;;10.73;59.23;100895.53;5036605;28;20174;-52
2022/12/30 09:01:14;;;;;;;11.00;3.03;;;8.40;82.40;;;10.76;59.13;100899.63;5035815;28;20252;-52
2022/12/30 09:03:42;;;;;;;7.00;2.77;;;8.40;82.30;;;10.84;59.32;100900.41;5035976;28;20237;-54
2022/12/30 09:06:13;;;;;;;14.43;3.93;;;8.50;82.30;;;10.87;59.75;100892.16;5035380;28;20214;-52
2022/12/30 09:08:40;;;;;;;10.07;3.37;;;8.50;82.00;;;10.93;59.22;100887.19;5034855;28;20222;-55
2022/12/30 09:11:10;;;;;;;8.77;3.10;;;8.50;82.00;;;10.99;58.76;100889.13;5035196;28;20218;-53
2022/12/30 09:13:39;;;;;;;9.40;2.90;;;8.60;81.80;;;11.07;58.46;100891.72;5016055;28;20184;-54
2022/12/30 09:16:12;;;;;;;11.27;3.23;;;8.60;81.70;;;11.08;58.98;100890.75;5015969;28;20678;-54
2022/12/30 09:18:39;;;;;;;8.67;2.90;;;8.70;81.50;;;11.02;58.90;100875.63;5021932;28;20535;-55
2022/12/30 09:21:07;;;;;;;9.97;2.63;;;8.70;81.30;;;11.03;59.00;100879.91;5036379;28;20183;-53
2022/12/30 09:23:35;;;;;;;11.00;3.90;;;8.70;81.30;;;11.14;58.22;100884.75;5035580;28;20252;-55
2022/12/30 09:26:04;;;;;;;13.17;3.20;;;8.70;81.10;;;11.24;58.55;100882.72;5035727;28;20686;-54
2022/12/30 09:28:32;;;;;;;6.70;2.70;;;8.80;81.20;;;11.23;58.32;100879.28;5035400;28;20199;-54
2022/12/30 09:30:59;;;;;;;8.90;3.17;;;8.80;80.90;;;11.28;57.92;100882.19;5034343;28;20686;-53
2022/12/30 09:33:27;;;;;;;6.90;2.40;;;8.80;80.70;;;11.25;57.62;100872.00;5034835;28;20260;-53
2022/12/30 09:35:54;;;;;;;9.17;2.83;;;8.80;80.40;;;11.25;57.67;100860.63;5035142;28;20198;-53
2022/12/30 09:38:21;;;;;;;12.13;3.33;;;8.90;80.40;;;11.31;57.74;100865.22;5034032;28;20573;-52
2022/12/30 09:40:57;;;;;;;9.47;2.97;;;8.90;80.30;;;11.40;57.96;100869.44;5034629;28;20265;-52
2022/12/30 09:43:34;;;;;;;10.03;2.73;;;9.00;80.40;;;11.42;57.35;100870.06;5034254;28;20589;-54
2022/12/30 09:46:33;;;;;;;10.73;3.10;;;9.00;80.10;;;11.37;57.46;100861.88;5034242;28;20180;-53
2022/12/30 09:49:04;;;;;;;8.43;2.43;;;9.00;80.00;;;11.29;58.06;100857.47;5026433;28;20227;-53
2022/12/30 09:51:41;;;;;;;9.83;2.77;;;9.00;79.80;;;11.30;57.42;100845.94;5035058;28;20571;-51
2022/12/30 09:54:14;;;;;;;9.83;3.03;;;9.00;79.80;;;11.35;57.42;100848.06;5034393;28;20296;-55
2022/12/30 09:56:45;;;;;;;12.27;3.40;;;9.00;79.70;;;11.31;57.68;100844.97;5014666;28;20339;-54
2022/12/30 09:59:19;;;;;;;7.63;2.17;;;9.00;79.70;;;11.39;57.80;100841.44;5017241;28;20284;-55
2022/12/30 10:01:51;;;;;;;11.70;2.73;;;9.10;79.60;;;11.48;57.08;100835.91;5033888;28;20185;-54
2022/12/30 10:04:20;;;;;;;9.80;2.83;;;9.10;79.20;;;11.44;57.32;100839.91;5016039;28;20184;-53
2022/12/30 10:07:02;;;;;;;10.80;2.87;;;9.20;79.10;;;11.51;56.90;100840.00;5014528;28;20201;-55
2022/12/30 10:09:46;;;;;;;10.93;3.00;;;9.20;79.00;;;11.55;56.39;100828.13;5031761;28;20305;-53
2022/12/30 10:12:44;;;;;;;7.57;2.60;;;9.20;78.60;;;11.62;56.55;100831.69;5033885;28;20225;-55
2022/12/30 10:15:33;;;;;;;7.50;2.27;;;9.30;78.50;;;11.77;56.17;100831.72;5034188;28;20183;-54
2022/12/30 10:18:24;;;;;;;12.87;3.00;;;9.40;78.30;;;11.87;56.29;100825.19;5033644;28;20245;-54
2022/12/30 10:21:07;;;;;;;7.47;2.37;;;9.50;78.10;;;11.88;55.62;100824.22;5014215;28;20191;-54
2022/12/30 10:23:54;;;;;;;9.00;2.23;;;9.50;77.50;;;11.87;55.70;100821.75;5014707;28;20195;-53
2022/12/30 10:26:24;;;;;;;5.17;2.00;;;9.60;77.30;;;11.99;55.53;100807.94;5013172;28;20572;-54
2022/12/30 10:28:59;;;;;;;7.20;3.27;;;9.70;77.20;;;12.10;55.09;100790.81;5012981;28;20295;-52
2022/12/30 10:31:33;;;;;;;6.93;2.20;;;9.70;77.00;;;12.11;55.10;100790.66;5013569;28;20297;-55
2022/12/30 10:34:11;;;;;;;7.27;2.40;;;9.70;76.80;;;12.09;55.38;100792.66;5015220;28;20255;-54
2022/12/30 10:36:58;;;;;;;6.83;2.27;;;9.80;76.80;;;12.23;54.54;100778.63;5033327;28;20186;-55
2022/12/30 10:39:31;;;;;;;7.73;2.57;;;9.80;76.60;;;12.18;54.46;100786.28;5033141;28;20755;-53
2022/12/30 10:42:40;;;;;;;8.90;3.00;;;9.80;76.20;;;12.11;54.83;100774.81;5033309;28;20203;-55
2022/12/30 10:45:36;;;;;;;7.43;2.60;;;9.90;76.20;;;12.14;54.32;100763.91;5031964;28;20559;-52
2022/12/30 10:48:29;;;;;;;10.03;2.03;;;9.90;75.90;;;12.12;54.72;100750.06;5033262;28;20178;-57
2022/12/30 10:50:57;;;;;;;3.73;1.93;;;9.90;76.00;;;12.23;54.75;100752.25;5031770;28;20209;-54
2022/12/30 10:53:29;;;;;;;8.23;2.70;;;9.90;75.90;;;12.28;54.47;100748.22;5033697;28;20195;-55
2022/12/30 10:55:58;;;;;;;7.87;2.57;;;10.00;74.70;;;12.22;54.94;100726.00;5033405;28;20693;-55
2022/12/30 10:58:34;;;;;;;7.93;2.63;;;9.90;75.70;;;12.22;54.60;100724.19;5032128;28;20205;-55
2022/12/30 11:01:02;;;;;;;7.07;2.50;;;10.00;74.60;;;12.33;54.75;100724.72;5032347;28;20566;-55
2022/12/30 11:03:41;;;;;;;4.90;1.70;;;10.00;74.40;;;12.20;54.58;100705.09;5032943;28;20205;-54
2022/12/30 11:06:19;;;;;;;6.07;1.93;;;10.00;74.20;;;12.11;54.38;100700.94;5013850;28;20176;-54
2022/12/30 11:08:48;;;;;;;4.97;2.27;;;10.00;74.30;;;12.18;54.45;100686.00;5013639;28;20622;-53
2022/12/30 11:11:16;;;;;;;9.87;2.30;;;10.00;74.40;;;12.19;54.91;100684.97;5016210;28;20219;-55
2022/12/30 11:14:56;;;;;;;7.03;2.23;;;10.00;74.40;;;12.11;54.81;100676.38;5014460;28;20656;-53
2022/12/30 11:16:52;;;;;;;12.13;2.37;;;10.00;74.30;;;12.18;54.36;100666.72;5012740;28;20340;-53
2022/12/30 11:19:23;;;;;;;5.83;2.23;;;10.00;74.10;;;12.19;54.53;100661.25;5012914;28;20380;-53
2022/12/30 11:21:54;;;;;;;9.00;2.63;;;10.00;74.20;;;12.18;54.63;100656.97;5013195;28;20191;-54